Time;durP1;ratioP1;P1;durP2;ratioP2;P2;SDS_P1;SDS_P2;PMS_P1;PMS_P2;Temp;Humidity;BMP_temperature;BMP_pressure;BME280_temperature;BME280_humidity;BME280_pressure;Samples;Min_cycle;Max_cycle;Signal;HPM_P1;HPM_P2
2023/12/03 00:02:18;;;;;;;7.60;6.90;;;-2.30;55.20;;;;;;5065112;28;20205;-67
2023/12/03 00:04:44;;;;;;;7.67;7.07;;;-2.40;55.00;;;;;;5066433;28;20237;-66
2023/12/03 00:07:11;;;;;;;7.30;6.70;;;-2.50;55.30;;;;;;5073068;28;20237;-66
2023/12/03 00:09:38;;;;;;;7.33;6.73;;;-2.40;55.70;;;;;;5072888;28;20254;-66
2023/12/03 00:12:04;;;;;;;8.23;7.53;;;-2.60;55.60;;;;;;5072888;28;20255;-66
2023/12/03 00:14:31;;;;;;;7.87;7.07;;;-2.60;55.70;;;;;;5071993;28;20209;-66
2023/12/03 00:16:57;;;;;;;7.47;6.83;;;-2.70;55.70;;;;;;5073680;28;20212;-66
2023/12/03 00:19:24;;;;;;;7.63;7.03;;;-2.70;55.50;;;;;;5065373;28;20636;-66
2023/12/03 00:21:50;;;;;;;7.07;6.37;;;-2.80;54.90;;;;;;5056936;28;20205;-67
2023/12/03 00:24:17;;;;;;;7.70;6.90;;;-2.90;55.80;;;;;;5072862;28;20648;-67
2023/12/03 00:26:43;;;;;;;7.93;7.13;;;-2.90;56.80;;;;;;5072457;28;20307;-66
2023/12/03 00:29:10;;;;;;;8.07;7.37;;;-2.90;56.80;;;;;;5072485;28;20294;-67
2023/12/03 00:31:37;;;;;;;7.93;7.20;;;-2.90;56.80;;;;;;5070777;28;20209;-66
2023/12/03 00:34:03;;;;;;;8.50;7.80;;;-2.90;56.80;;;;;;5072434;28;20351;-66
2023/12/03 00:36:30;;;;;;;7.73;7.03;;;-3.00;56.70;;;;;;5069984;28;20637;-66
2023/12/03 00:38:56;;;;;;;8.53;7.73;;;-3.10;56.60;;;;;;5063280;28;20206;-66
2023/12/03 00:41:23;;;;;;;7.50;6.80;;;-2.90;56.80;;;;;;5072048;28;20267;-67
2023/12/03 00:43:50;;;;;;;8.00;7.20;;;-2.90;56.30;;;;;;5072314;28;20279;-66
2023/12/03 00:46:16;;;;;;;7.97;7.27;;;-2.80;55.80;;;;;;5064239;28;20233;-67
2023/12/03 00:48:43;;;;;;;7.70;7.00;;;-2.70;55.30;;;;;;5070327;28;20213;-66
2023/12/03 00:51:09;;;;;;;7.70;7.10;;;-2.70;55.60;;;;;;5072253;28;20290;-66
2023/12/03 00:53:36;;;;;;;8.07;7.37;;;-2.70;55.40;;;;;;5070129;28;20258;-66
2023/12/03 00:56:03;;;;;;;7.47;6.67;;;-2.60;55.80;;;;;;5065704;28;20305;-67
2023/12/03 00:58:29;;;;;;;9.10;8.30;;;-2.70;55.20;;;;;;5065950;28;20209;-66
2023/12/03 01:00:56;;;;;;;9.27;8.40;;;-2.80;55.50;;;;;;5072005;28;20212;-66
2023/12/03 01:03:22;;;;;;;8.73;7.90;;;-2.70;56.30;;;;;;5064492;28;20217;-66
2023/12/03 01:05:49;;;;;;;8.73;7.90;;;-2.70;56.30;;;;;;5066057;28;20711;-67
2023/12/03 01:08:15;;;;;;;8.63;7.83;;;-2.80;55.70;;;;;;5063650;28;20805;-66
2023/12/03 01:10:42;;;;;;;8.53;7.70;;;-2.80;56.70;;;;;;5071975;28;20240;-66
2023/12/03 01:13:08;;;;;;;9.10;8.23;;;-2.80;56.10;;;;;;5071894;28;20205;-66
2023/12/03 01:15:35;;;;;;;9.00;8.10;;;-2.80;56.00;;;;;;5071561;28;20221;-66
2023/12/03 01:18:01;;;;;;;8.30;7.60;;;-2.80;56.40;;;;;;5071501;28;20245;-66
2023/12/03 01:20:28;;;;;;;8.50;7.63;;;-2.80;56.20;;;;;;5063649;28;20209;-65
2023/12/03 01:22:55;;;;;;;8.50;7.70;;;-2.90;56.20;;;;;;5064298;28;20552;-66
2023/12/03 01:25:21;;;;;;;8.57;7.77;;;-3.00;56.70;;;;;;5071765;28;20319;-66
2023/12/03 01:27:48;;;;;;;8.63;7.87;;;-3.20;56.50;;;;;;5072047;28;20224;-66
2023/12/03 01:30:14;;;;;;;7.87;7.17;;;-3.20;56.50;;;;;;5071776;28;20237;-66
2023/12/03 01:32:41;;;;;;;9.30;8.33;;;-3.10;56.60;;;;;;5071523;28;20212;-66
2023/12/03 01:35:07;;;;;;;8.30;7.50;;;-3.10;56.30;;;;;;5071489;28;20252;-66
2023/12/03 01:37:34;;;;;;;8.07;7.27;;;-3.10;56.40;;;;;;5066995;28;20676;-66
2023/12/03 01:40:00;;;;;;;8.80;8.00;;;-3.10;56.20;;;;;;5061235;28;20668;-66
2023/12/03 01:42:27;;;;;;;10.00;9.10;;;-3.20;56.50;;;;;;5071415;28;20232;-66
2023/12/03 01:44:53;;;;;;;8.60;7.90;;;-3.20;56.50;;;;;;5061836;28;20229;-66
2023/12/03 01:47:20;;;;;;;8.53;7.73;;;-3.30;57.00;;;;;;5065716;28;20274;-66
2023/12/03 01:49:47;;;;;;;9.13;8.27;;;-3.30;57.10;;;;;;5071478;28;20229;-66
2023/12/03 01:52:13;;;;;;;9.43;8.53;;;-3.50;57.10;;;;;;5071479;28;20209;-66
2023/12/03 01:54:41;;;;;;;8.73;7.83;;;-3.40;57.10;;;;;;5071549;28;20278;-66
2023/12/03 01:57:08;;;;;;;9.50;8.53;;;-3.50;56.40;;;;;;5068992;28;20210;-66
2023/12/03 01:59:34;;;;;;;9.50;8.60;;;-3.50;57.20;;;;;;5071317;28;20240;-66
2023/12/03 02:02:01;;;;;;;8.27;7.47;;;-3.50;56.30;;;;;;5066280;28;20236;-66
2023/12/03 02:04:27;;;;;;;8.97;8.17;;;-3.40;57.60;;;;;;5059237;28;20248;-67
2023/12/03 02:06:54;;;;;;;9.80;8.90;;;-3.40;57.50;;;;;;5065884;28;20263;-68
2023/12/03 02:09:20;;;;;;;8.87;7.97;;;-3.40;56.80;;;;;;5075163;28;20278;-66
2023/12/03 02:11:47;;;;;;;9.37;8.47;;;-3.40;56.40;;;;;;5073994;28;20201;-66
2023/12/03 02:14:14;;;;;;;9.50;8.57;;;-3.50;57.10;;;;;;5073096;28;20201;-66
2023/12/03 02:16:40;;;;;;;8.90;8.00;;;-3.50;56.90;;;;;;5074696;28;20255;-66
2023/12/03 02:19:07;;;;;;;9.57;8.63;;;-3.40;57.10;;;;;;5055925;28;20214;-66
2023/12/03 02:21:33;;;;;;;8.87;7.83;;;-3.40;56.80;;;;;;5061692;28;20688;-67
2023/12/03 02:24:00;;;;;;;9.73;8.73;;;-3.40;57.70;;;;;;5068269;28;20249;-67
2023/12/03 02:26:26;;;;;;;9.73;8.73;;;-3.50;56.30;;;;;;5074698;28;20252;-66
2023/12/03 02:28:53;;;;;;;9.80;8.83;;;-3.40;57.20;;;;;;5074707;28;20228;-67
2023/12/03 02:31:19;;;;;;;8.80;7.97;;;-3.40;57.20;;;;;;5072887;28;20228;-66
2023/12/03 02:33:46;;;;;;;9.80;8.97;;;-3.40;56.40;;;;;;5074515;28;20232;-66
2023/12/03 02:36:12;;;;;;;9.63;8.63;;;-3.50;56.50;;;;;;5074509;28;20639;-66
2023/12/03 02:38:39;;;;;;;8.57;7.77;;;-3.50;56.30;;;;;;5074744;28;20216;-66
2023/12/03 02:41:06;;;;;;;10.27;9.23;;;-3.40;57.40;;;;;;5061777;28;20295;-66
2023/12/03 02:43:32;;;;;;;9.50;7.83;;;-3.40;57.00;;;;;;5069758;28;20284;-66
2023/12/03 02:45:59;;;;;;;9.47;8.53;;;-3.30;56.60;;;;;;5072132;28;20221;-66
2023/12/03 02:48:25;;;;;;;9.23;8.40;;;-3.40;56.40;;;;;;5072660;28;20985;-66
2023/12/03 02:50:52;;;;;;;9.67;8.70;;;-3.40;56.90;;;;;;5074475;28;20209;-66
2023/12/03 02:53:19;;;;;;;9.73;8.73;;;-3.40;56.80;;;;;;5074216;28;20274;-66
2023/12/03 02:55:45;;;;;;;8.93;8.03;;;-3.40;57.10;;;;;;5074436;28;20229;-66
2023/12/03 02:58:12;;;;;;;9.70;8.70;;;-3.40;57.20;;;;;;5062382;28;20691;-66
2023/12/03 03:00:38;;;;;;;10.23;9.33;;;-3.50;57.00;;;;;;5060169;28;20209;-66
2023/12/03 03:03:05;;;;;;;9.83;8.83;;;-3.50;57.40;;;;;;5068717;28;20209;-66
2023/12/03 03:05:31;;;;;;;9.07;8.17;;;-3.50;56.80;;;;;;5071184;28;20272;-66
2023/12/03 03:07:58;;;;;;;10.10;9.07;;;-3.40;56.80;;;;;;5062503;28;20727;-67
2023/12/03 03:10:24;;;;;;;9.77;8.77;;;-3.40;56.40;;;;;;5074048;28;20205;-66
2023/12/03 03:12:51;;;;;;;9.50;8.60;;;-3.50;56.90;;;;;;5072988;28;20237;-66
2023/12/03 03:15:17;;;;;;;10.43;9.13;;;-3.50;56.90;;;;;;5072460;28;20229;-66
2023/12/03 03:17:44;;;;;;;9.70;8.80;;;-3.60;56.30;;;;;;5070211;28;20300;-66
2023/12/03 03:20:11;;;;;;;9.77;8.77;;;-3.60;56.20;;;;;;5072805;28;20244;-66
2023/12/03 03:22:37;;;;;;;10.33;9.23;;;-3.70;57.10;;;;;;5055207;28;20205;-66
2023/12/03 03:25:04;;;;;;;9.97;8.87;;;-3.60;57.30;;;;;;5065049;28;20236;-66
2023/12/03 03:27:31;;;;;;;10.73;8.60;;;-3.60;56.90;;;;;;5069472;28;20236;-66
2023/12/03 03:29:57;;;;;;;9.93;8.80;;;-3.70;56.20;;;;;;5070881;28;20224;-66
2023/12/03 03:32:24;;;;;;;10.57;9.50;;;-3.90;57.30;;;;;;5073561;28;20276;-67
2023/12/03 03:34:50;;;;;;;10.40;9.40;;;-3.80;57.70;;;;;;5073729;28;20229;-66
2023/12/03 03:37:17;;;;;;;10.33;9.33;;;-3.80;57.30;;;;;;5065363;28;20211;-66
2023/12/03 03:39:43;;;;;;;12.57;9.90;;;-3.80;57.60;;;;;;5067523;28;20283;-66
2023/12/03 03:42:10;;;;;;;10.60;9.57;;;-3.90;57.20;;;;;;5066317;28;20350;-66
2023/12/03 03:44:37;;;;;;;10.23;9.00;;;-3.90;57.50;;;;;;5073767;28;20271;-66
2023/12/03 03:47:03;;;;;;;9.50;8.47;;;-3.80;57.40;;;;;;5072726;28;20201;-66
2023/12/03 03:49:30;;;;;;;10.40;8.40;;;-3.80;57.20;;;;;;5073634;28;20240;-66
2023/12/03 03:51:57;;;;;;;10.20;9.20;;;-3.90;57.50;;;;;;5073253;28;20207;-67
2023/12/03 03:54:23;;;;;;;9.73;8.83;;;-3.80;56.80;;;;;;5073368;28;20241;-65
2023/12/03 03:56:50;;;;;;;10.67;9.57;;;-3.90;56.80;;;;;;5064192;28;21939;-66
2023/12/03 03:59:16;;;;;;;8.93;8.00;;;-3.80;57.30;;;;;;5060317;28;20773;-66
2023/12/03 04:01:43;;;;;;;9.30;8.40;;;-3.70;57.00;;;;;;5073694;28;20240;-66
2023/12/03 04:04:10;;;;;;;9.60;8.63;;;-3.80;56.00;;;;;;5068223;28;20578;-66
2023/12/03 04:06:36;;;;;;;9.70;8.70;;;-3.80;56.00;;;;;;5064008;28;20703;-66
2023/12/03 04:09:03;;;;;;;10.33;9.23;;;-3.80;56.40;;;;;;5064552;28;20212;-67
2023/12/03 04:11:29;;;;;;;9.43;8.37;;;-3.80;57.10;;;;;;5074101;28;20205;-66
2023/12/03 04:13:56;;;;;;;9.90;8.93;;;-3.70;56.10;;;;;;5071951;28;20239;-65
2023/12/03 04:16:23;;;;;;;10.07;9.17;;;-3.80;56.60;;;;;;5066676;28;20286;-66
2023/12/03 04:18:50;;;;;;;10.20;9.20;;;-3.90;56.80;;;;;;5073317;28;20775;-66
2023/12/03 04:21:16;;;;;;;10.20;8.87;;;-3.80;56.80;;;;;;5064859;28;20205;-65
2023/12/03 04:23:43;;;;;;;10.47;9.37;;;-3.70;56.90;;;;;;5068228;28;20248;-66
2023/12/03 04:26:10;;;;;;;11.37;9.53;;;-3.80;56.90;;;;;;5066688;28;20294;-66
2023/12/03 04:28:36;;;;;;;10.03;9.13;;;-3.80;56.00;;;;;;5065916;28;20241;-66
2023/12/03 04:31:03;;;;;;;9.80;8.80;;;-3.90;56.00;;;;;;5071428;28;20241;-64
2023/12/03 04:33:29;;;;;;;11.33;10.23;;;-3.80;56.30;;;;;;5071736;28;20240;-66
2023/12/03 04:35:56;;;;;;;9.63;8.73;;;-3.60;55.80;;;;;;5072629;28;20781;-65
2023/12/03 04:38:22;;;;;;;9.90;9.00;;;-3.80;56.00;;;;;;5071031;28;20237;-66
2023/12/03 04:40:49;;;;;;;9.83;8.83;;;-3.80;56.00;;;;;;5067920;28;20202;-67
2023/12/03 04:43:16;;;;;;;10.67;9.67;;;-3.80;56.00;;;;;;5056691;28;20669;-66
2023/12/03 04:45:42;;;;;;;9.40;8.50;;;-3.70;56.10;;;;;;5070872;28;20286;-66
2023/12/03 04:48:09;;;;;;;9.67;8.67;;;-3.80;56.00;;;;;;5072528;28;20201;-66
2023/12/03 04:50:35;;;;;;;10.27;9.17;;;-3.70;56.10;;;;;;5072436;28;20205;-66
2023/12/03 04:53:02;;;;;;;9.37;8.47;;;-3.70;56.10;;;;;;5065067;28;20206;-66
2023/12/03 04:55:28;;;;;;;10.23;8.57;;;-3.70;56.10;;;;;;5072046;28;20248;-66
2023/12/03 04:57:55;;;;;;;10.27;9.27;;;-3.60;55.90;;;;;;5072222;28;20259;-66
2023/12/03 05:00:21;;;;;;;9.93;8.93;;;-3.60;55.70;;;;;;5067323;28;20244;-66
2023/12/03 05:02:48;;;;;;;10.03;9.03;;;-3.60;56.20;;;;;;5064966;28;20218;-65
2023/12/03 05:05:14;;;;;;;9.60;8.37;;;-3.50;56.30;;;;;;5065805;28;20748;-66
2023/12/03 05:07:41;;;;;;;11.30;10.03;;;-3.60;56.20;;;;;;5066998;28;20632;-66
2023/12/03 05:10:07;;;;;;;9.53;8.57;;;-3.60;56.20;;;;;;5071865;28;20700;-66
2023/12/03 05:12:34;;;;;;;9.87;8.80;;;-3.40;56.10;;;;;;5072206;28;20674;-66
2023/12/03 05:15:00;;;;;;;10.60;8.97;;;-3.50;56.30;;;;;;5071781;28;20270;-66
2023/12/03 05:17:27;;;;;;;9.17;8.27;;;-3.30;56.50;;;;;;5071750;28;20216;-66
2023/12/03 05:19:53;;;;;;;10.00;9.07;;;-3.30;56.50;;;;;;5069956;28;20647;-66
2023/12/03 05:22:20;;;;;;;11.23;9.17;;;-3.30;56.70;;;;;;5071702;28;20229;-66
2023/12/03 05:24:48;;;;;;;10.13;9.13;;;-3.20;56.50;;;;;;5057294;28;20318;-66
2023/12/03 05:27:14;;;;;;;10.87;9.77;;;-3.30;56.50;;;;;;5064269;28;20208;-66
2023/12/03 05:29:41;;;;;;;10.43;9.33;;;-3.40;57.00;;;;;;5071726;28;20241;-66
2023/12/03 05:32:07;;;;;;;10.37;9.27;;;-3.40;57.80;;;;;;5071509;28;20259;-67
2023/12/03 05:34:34;;;;;;;10.10;8.67;;;-3.50;58.40;;;;;;5071433;28;20288;-66
2023/12/03 05:37:00;;;;;;;11.77;8.77;;;-3.50;58.50;;;;;;5069500;28;20213;-66
2023/12/03 05:39:27;;;;;;;9.90;9.00;;;-3.50;58.20;;;;;;5071673;28;20255;-66
2023/12/03 05:41:53;;;;;;;9.87;8.97;;;-3.50;58.40;;;;;;5062146;28;20714;-66
2023/12/03 05:44:20;;;;;;;9.73;8.70;;;-3.50;58.60;;;;;;5070799;28;20259;-66
2023/12/03 05:46:46;;;;;;;10.37;9.37;;;-3.50;58.30;;;;;;5071559;28;20240;-65
2023/12/03 05:49:13;;;;;;;9.83;8.93;;;-3.30;57.60;;;;;;5071737;28;20631;-66
2023/12/03 05:51:40;;;;;;;10.07;9.00;;;-3.30;57.60;;;;;;5071535;28;20228;-66
2023/12/03 05:54:06;;;;;;;10.13;9.10;;;-3.30;57.30;;;;;;5069824;28;20217;-66
2023/12/03 05:56:33;;;;;;;10.47;9.33;;;-3.30;58.00;;;;;;5071348;28;20233;-66
2023/12/03 05:58:59;;;;;;;10.37;9.27;;;-3.30;58.10;;;;;;5066505;28;20204;-66
2023/12/03 06:01:26;;;;;;;9.97;9.03;;;-3.30;58.30;;;;;;5070938;28;20213;-66
2023/12/03 06:03:52;;;;;;;10.40;9.30;;;-3.40;58.10;;;;;;5071557;28;20248;-67
2023/12/03 06:06:19;;;;;;;10.60;9.43;;;-3.40;58.40;;;;;;5066661;28;20256;-66
2023/12/03 06:08:45;;;;;;;9.97;8.97;;;-3.50;58.40;;;;;;5066954;28;20229;-66
2023/12/03 06:11:12;;;;;;;10.07;9.07;;;-3.40;58.10;;;;;;5070136;28;20244;-67
2023/12/03 06:13:38;;;;;;;10.73;9.73;;;-3.40;58.20;;;;;;5071379;28;20236;-66
2023/12/03 06:16:05;;;;;;;10.20;9.20;;;-3.30;58.00;;;;;;5071498;28;20279;-66
2023/12/03 06:18:31;;;;;;;9.73;8.83;;;-3.20;57.30;;;;;;5071227;28;20204;-66
2023/12/03 06:20:58;;;;;;;10.50;9.40;;;-3.20;57.20;;;;;;5071145;28;20236;-65
2023/12/03 06:23:24;;;;;;;9.80;8.90;;;-3.20;57.80;;;;;;5071015;28;20213;-66
2023/12/03 06:25:51;;;;;;;9.40;8.50;;;-3.20;57.90;;;;;;5068876;28;20278;-65
2023/12/03 06:28:17;;;;;;;10.33;9.30;;;-3.10;57.80;;;;;;5063935;28;20236;-66
2023/12/03 06:30:44;;;;;;;10.17;9.17;;;-3.10;57.30;;;;;;5066448;28;20210;-66
2023/12/03 06:33:11;;;;;;;9.80;8.80;;;-3.20;56.80;;;;;;5070308;28;20671;-66
2023/12/03 06:35:38;;;;;;;10.07;9.00;;;-3.10;57.80;;;;;;5071086;28;20217;-66
2023/12/03 06:38:04;;;;;;;10.03;9.03;;;-3.10;58.00;;;;;;5054939;28;20225;-66
2023/12/03 06:40:31;;;;;;;11.00;9.93;;;-3.10;57.20;;;;;;5061613;28;20212;-65
2023/12/03 06:42:57;;;;;;;10.33;9.30;;;-2.90;56.80;;;;;;5071139;28;20691;-66
2023/12/03 06:45:24;;;;;;;10.27;9.17;;;-2.90;57.20;;;;;;5062419;28;20267;-66
2023/12/03 06:47:50;;;;;;;9.47;8.47;;;-2.90;56.80;;;;;;5061907;28;20243;-66
2023/12/03 06:50:17;;;;;;;9.67;8.73;;;-3.00;57.40;;;;;;5062757;28;20213;-65
2023/12/03 06:52:43;;;;;;;9.47;8.27;;;-3.00;57.80;;;;;;5068429;28;20209;-66
2023/12/03 06:55:10;;;;;;;10.50;9.40;;;-3.10;57.30;;;;;;5073295;28;20711;-65
2023/12/03 06:57:37;;;;;;;10.13;9.00;;;-3.00;57.80;;;;;;5074354;28;20244;-66
2023/12/03 07:00:04;;;;;;;10.20;9.17;;;-2.90;57.90;;;;;;5072531;28;20244;-66
2023/12/03 07:02:30;;;;;;;9.37;8.47;;;-2.90;56.90;;;;;;5059354;28;20205;-66
2023/12/03 07:04:57;;;;;;;10.30;9.30;;;-2.80;55.60;;;;;;5067475;28;20715;-66
2023/12/03 07:07:23;;;;;;;10.30;8.97;;;-2.70;55.90;;;;;;5068544;28;20237;-66
2023/12/03 07:09:50;;;;;;;9.83;8.93;;;-2.70;56.00;;;;;;5062460;28;21650;-67
2023/12/03 07:12:16;;;;;;;10.27;9.20;;;-2.60;55.50;;;;;;5071775;28;20209;-66
2023/12/03 07:14:43;;;;;;;10.80;9.40;;;-2.50;55.60;;;;;;5062121;28;20241;-65
2023/12/03 07:17:10;;;;;;;9.93;8.90;;;-2.60;55.20;;;;;;5072817;28;20232;-65
2023/12/03 07:19:36;;;;;;;10.50;9.50;;;-2.70;55.90;;;;;;5071806;28;20255;-65
2023/12/03 07:22:03;;;;;;;10.30;8.83;;;-2.60;55.80;;;;;;5064829;28;20208;-66
2023/12/03 07:24:29;;;;;;;10.07;9.07;;;-2.60;55.80;;;;;;5061555;28;20201;-66
2023/12/03 07:26:56;;;;;;;9.73;8.73;;;-2.60;56.60;;;;;;5063657;28;20220;-65
2023/12/03 07:29:22;;;;;;;11.37;9.13;;;-2.70;55.80;;;;;;5058185;28;20236;-66
2023/12/03 07:31:48;;;;;;;10.10;8.73;;;-2.80;56.60;;;;;;5070316;28;20229;-66
2023/12/03 07:34:14;;;;;;;10.00;9.00;;;-2.70;57.00;;;;;;5061565;28;20212;-68
2023/12/03 07:36:41;;;;;;;10.17;9.17;;;-2.60;57.70;;;;;;5067234;28;20249;-65
2023/12/03 07:39:08;;;;;;;11.80;9.93;;;-2.70;57.00;;;;;;5055432;28;20272;-66
2023/12/03 07:41:34;;;;;;;10.20;9.17;;;-2.70;57.00;;;;;;5059016;28;20205;-65
2023/12/03 07:44:01;;;;;;;10.47;9.40;;;-2.70;57.00;;;;;;5063236;28;20205;-65
2023/12/03 07:46:27;;;;;;;11.80;10.23;;;-2.70;57.00;;;;;;5056150;28;20226;-65
2023/12/03 07:48:54;;;;;;;10.70;9.53;;;-2.60;57.30;;;;;;5062292;28;20292;-65
2023/12/03 07:51:20;;;;;;;9.97;9.07;;;-2.40;58.70;;;;;;5067805;28;20255;-65
2023/12/03 07:53:47;;;;;;;10.47;9.37;;;-2.30;58.10;;;;;;5070436;28;20237;-65
2023/12/03 07:56:14;;;;;;;9.43;8.50;;;-2.30;57.30;;;;;;5070002;28;20225;-65
2023/12/03 07:58:40;;;;;;;10.17;9.17;;;-2.20;57.00;;;;;;5066099;28;20612;-67
2023/12/03 08:01:07;;;;;;;11.07;9.87;;;-2.20;57.40;;;;;;5067534;28;20237;-64
2023/12/03 08:03:33;;;;;;;10.93;9.57;;;-2.20;56.60;;;;;;5063527;28;21593;-65
2023/12/03 08:06:00;;;;;;;11.60;9.60;;;-2.20;56.50;;;;;;5054591;28;20240;-65
2023/12/03 08:08:26;;;;;;;10.33;9.33;;;-2.20;57.30;;;;;;5064500;28;20201;-64
2023/12/03 08:10:53;;;;;;;10.60;9.53;;;-2.20;56.50;;;;;;5070518;28;20712;-65
2023/12/03 08:13:19;;;;;;;10.33;9.33;;;-2.10;56.60;;;;;;5069955;28;20198;-64
2023/12/03 08:15:46;;;;;;;10.10;9.03;;;-2.00;55.90;;;;;;5072252;28;20225;-65
2023/12/03 08:18:12;;;;;;;9.77;8.40;;;-2.00;55.20;;;;;;5071321;28;20254;-64
2023/12/03 08:20:39;;;;;;;11.17;9.97;;;-2.10;56.40;;;;;;5067726;28;20259;-64
2023/12/03 08:23:06;;;;;;;10.27;9.27;;;-2.00;55.60;;;;;;5068179;28;20681;-65
2023/12/03 08:25:32;;;;;;;11.20;10.03;;;-2.00;55.00;;;;;;5058835;28;20269;-64
2023/12/03 08:27:59;;;;;;;11.03;9.57;;;-2.00;56.10;;;;;;5070472;28;20205;-64
2023/12/03 08:30:25;;;;;;;10.77;9.43;;;-2.00;55.70;;;;;;5070239;28;20683;-64
2023/12/03 08:32:52;;;;;;;10.63;9.53;;;-1.90;55.70;;;;;;5065809;28;20802;-65
2023/12/03 08:35:18;;;;;;;9.90;8.73;;;-1.80;55.60;;;;;;5066810;28;20225;-63
2023/12/03 08:37:46;;;;;;;10.73;8.90;;;-1.70;54.60;;;;;;5063906;28;20236;-64
2023/12/03 08:40:13;;;;;;;10.43;9.40;;;-1.50;54.00;;;;;;5070982;28;20986;-66
2023/12/03 08:42:41;;;;;;;11.03;9.70;;;-1.40;52.60;;;;;;5053819;28;20668;-67
2023/12/03 08:45:08;;;;;;;10.10;8.73;;;-1.30;53.10;;;;;;5061960;28;20324;-63
2023/12/03 08:47:34;;;;;;;10.20;9.20;;;-1.30;53.20;;;;;;5067850;28;20282;-66
2023/12/03 08:50:01;;;;;;;10.00;9.00;;;-1.20;53.50;;;;;;5065486;28;20245;-65
2023/12/03 08:52:28;;;;;;;10.20;9.10;;;-1.20;53.20;;;;;;5067164;28;20232;-67
2023/12/03 08:54:54;;;;;;;9.97;8.93;;;-1.10;54.00;;;;;;5061077;28;20227;-66
2023/12/03 08:57:21;;;;;;;10.80;8.90;;;-1.00;53.30;;;;;;5055301;28;20210;-64
2023/12/03 08:59:49;;;;;;;10.33;9.23;;;-0.90;53.50;;;;;;5063873;28;20237;-68
2023/12/03 09:02:16;;;;;;;10.37;8.80;;;-0.70;52.30;;;;;;5062395;28;20205;-67
2023/12/03 09:04:42;;;;;;;10.13;9.13;;;-1.00;50.40;;;;;;5057857;28;20605;-66
2023/12/03 09:07:09;;;;;;;11.13;9.67;;;-0.90;52.20;;;;;;5053028;28;20307;-67
2023/12/03 09:09:36;;;;;;;9.47;8.43;;;-0.90;52.20;;;;;;5055144;28;20222;-64
2023/12/03 09:12:03;;;;;;;9.87;8.97;;;-0.60;53.20;;;;;;5068201;28;20237;-66
2023/12/03 09:14:29;;;;;;;9.10;8.20;;;-0.40;50.80;;;;;;5070856;28;20231;-66
2023/12/03 09:16:57;;;;;;;9.60;8.70;;;-0.20;48.60;;;;;;5057613;28;20207;-66
2023/12/03 09:19:24;;;;;;;9.20;8.30;;;-0.10;50.50;;;;;;5059142;28;20329;-65
2023/12/03 09:21:50;;;;;;;8.23;7.53;;;0.00;50.30;;;;;;5061734;28;20816;-66
2023/12/03 09:24:17;;;;;;;9.00;8.10;;;0.30;49.60;;;;;;5064284;28;20279;-66
2023/12/03 09:26:45;;;;;;;8.83;7.93;;;0.60;47.30;;;;;;5061853;28;20250;-65
2023/12/03 09:29:12;;;;;;;9.43;8.30;;;1.00;48.50;;;;;;5065404;28;20209;-66
2023/12/03 09:31:39;;;;;;;9.23;8.10;;;1.00;47.80;;;;;;5068972;28;20228;-66
2023/12/03 09:34:06;;;;;;;10.07;8.17;;;1.20;47.20;;;;;;5071943;28;20308;-65
2023/12/03 09:36:32;;;;;;;8.50;7.70;;;1.10;47.10;;;;;;5065334;28;20249;-66
2023/12/03 09:39:00;;;;;;;8.97;8.07;;;1.30;47.60;;;;;;5062239;28;20246;-67
2023/12/03 09:41:27;;;;;;;8.97;8.07;;;1.10;48.20;;;;;;5051579;28;20605;-65
2023/12/03 09:43:54;;;;;;;8.60;7.50;;;1.30;46.60;;;;;;5061124;28;20202;-66
2023/12/03 09:46:20;;;;;;;8.20;7.50;;;1.30;45.80;;;;;;5064947;28;20268;-66
2023/12/03 09:48:47;;;;;;;8.80;8.00;;;1.40;46.50;;;;;;5061941;28;20251;-66
2023/12/03 09:51:13;;;;;;;9.67;8.50;;;1.50;46.80;;;;;;5069791;28;20208;-67
2023/12/03 09:53:40;;;;;;;8.70;7.90;;;1.90;48.00;;;;;;5063584;28;20229;-66
2023/12/03 09:56:06;;;;;;;9.33;8.53;;;1.90;46.10;;;;;;5058313;28;20251;-66
2023/12/03 09:58:33;;;;;;;8.77;7.97;;;1.90;46.50;;;;;;5077408;28;20590;-67
2023/12/03 10:01:00;;;;;;;9.23;8.07;;;1.80;44.30;;;;;;5058390;28;20624;-67
2023/12/03 10:03:26;;;;;;;9.00;8.10;;;2.10;44.60;;;;;;5065785;28;20649;-67
2023/12/03 10:05:53;;;;;;;8.90;8.00;;;1.90;45.60;;;;;;5066744;28;20253;-66
2023/12/03 10:08:19;;;;;;;8.83;7.83;;;1.90;46.00;;;;;;5071002;28;20677;-66
2023/12/03 10:10:46;;;;;;;9.07;8.27;;;1.90;46.50;;;;;;5065213;28;20236;-66
2023/12/03 10:13:13;;;;;;;9.23;8.30;;;2.20;46.70;;;;;;5070237;28;20298;-67
2023/12/03 10:15:40;;;;;;;8.63;7.83;;;2.20;45.80;;;;;;5065349;28;21398;-67
2023/12/03 10:18:06;;;;;;;9.20;8.40;;;2.40;45.30;;;;;;5057372;28;20302;-66
2023/12/03 10:20:33;;;;;;;10.33;8.47;;;2.70;44.00;;;;;;5070859;28;20234;-66
2023/12/03 10:23:00;;;;;;;9.37;8.47;;;2.80;45.30;;;;;;5070566;28;20216;-66
2023/12/03 10:25:27;;;;;;;10.27;9.00;;;2.30;46.60;;;;;;5062521;28;20316;-67
2023/12/03 10:27:52;;;;;;;9.17;8.17;;;2.70;45.10;;;;;;5065935;28;20219;-65
2023/12/03 10:30:19;;;;;;;8.20;7.40;;;3.00;44.20;;;;;;5070584;28;20254;-67
2023/12/03 10:32:45;;;;;;;9.60;8.67;;;2.40;43.40;;;;;;5061248;28;20215;-66
2023/12/03 10:35:12;;;;;;;9.00;8.10;;;2.20;46.30;;;;;;5056921;28;20269;-66
2023/12/03 10:37:38;;;;;;;9.43;8.37;;;2.20;45.90;;;;;;5067280;28;20256;-66
2023/12/03 10:40:05;;;;;;;9.57;8.57;;;1.90;47.10;;;;;;5071818;28;20607;-66
2023/12/03 10:42:33;;;;;;;8.93;8.03;;;2.70;45.70;;;;;;5069607;28;20208;-66
2023/12/03 10:44:59;;;;;;;9.50;8.50;;;3.20;46.10;;;;;;5068456;28;20243;-66
2023/12/03 10:47:26;;;;;;;8.53;7.73;;;3.70;42.50;;;;;;5073988;28;20232;-67
2023/12/03 10:49:53;;;;;;;9.10;8.20;;;3.30;43.00;;;;;;5074059;28;20211;-66
2023/12/03 10:52:19;;;;;;;8.37;7.57;;;3.40;43.80;;;;;;5074199;28;20309;-66
2023/12/03 10:54:46;;;;;;;9.30;8.40;;;3.40;43.10;;;;;;5073733;28;20303;-67
2023/12/03 10:57:12;;;;;;;9.37;8.47;;;3.30;43.90;;;;;;5068337;28;22891;-66
2023/12/03 10:59:41;;;;;;;9.37;8.47;;;3.00;43.00;;;;;;5068269;28;20208;-66
2023/12/03 11:02:11;;;;;;;8.87;7.97;;;3.20;43.30;;;;;;5069671;28;20347;-67
2023/12/03 11:04:37;;;;;;;8.70;7.90;;;3.30;43.90;;;;;;5065505;28;20248;-67
2023/12/03 11:07:04;;;;;;;9.07;8.20;;;3.30;44.40;;;;;;5073785;28;20231;-67
2023/12/03 11:09:30;;;;;;;9.77;8.83;;;2.90;44.20;;;;;;5069010;28;20267;-67
2023/12/03 11:11:57;;;;;;;9.50;8.20;;;3.30;44.50;;;;;;5065178;28;20228;-66
2023/12/03 11:14:24;;;;;;;8.70;7.90;;;3.40;43.90;;;;;;5066155;28;20230;-67
2023/12/03 11:16:50;;;;;;;8.70;7.80;;;3.10;44.70;;;;;;5056048;28;20303;-66
2023/12/03 11:19:17;;;;;;;9.17;8.27;;;3.30;43.20;;;;;;5064717;28;20208;-67
2023/12/03 11:21:42;;;;;;;10.07;8.93;;;3.70;43.40;;;;;;5073898;28;20240;-66
2023/12/03 11:24:09;;;;;;;10.17;9.07;;;3.30;43.90;;;;;;5065996;28;20259;-66
2023/12/03 11:26:35;;;;;;;9.90;8.90;;;3.60;44.10;;;;;;5074065;28;20260;-67
2023/12/03 11:29:02;;;;;;;9.30;8.40;;;3.60;45.00;;;;;;5067702;28;20208;-67
2023/12/03 11:31:28;;;;;;;10.57;8.80;;;3.60;43.90;;;;;;5067158;28;20248;-65
2023/12/03 11:33:55;;;;;;;9.40;8.47;;;3.60;44.70;;;;;;5064633;28;20213;-66
2023/12/03 11:36:21;;;;;;;10.33;9.33;;;3.70;43.40;;;;;;5066949;28;20315;-66
2023/12/03 11:38:48;;;;;;;9.67;8.67;;;3.60;43.50;;;;;;5065702;28;20233;-66
2023/12/03 11:41:15;;;;;;;10.17;9.17;;;3.40;42.90;;;;;;5063472;28;20210;-67
2023/12/03 11:43:41;;;;;;;9.53;8.60;;;3.40;44.50;;;;;;5067424;28;20201;-65
2023/12/03 11:46:08;;;;;;;9.67;8.73;;;3.00;44.30;;;;;;5061301;28;20306;-66
2023/12/03 11:48:34;;;;;;;10.03;9.03;;;3.00;44.20;;;;;;5069420;28;20239;-66
2023/12/03 11:51:01;;;;;;;9.20;8.30;;;2.90;45.00;;;;;;5061875;28;20661;-67
2023/12/03 11:53:26;;;;;;;9.80;8.83;;;2.70;45.50;;;;;;5061398;28;20589;-67
2023/12/03 11:55:53;;;;;;;10.20;9.20;;;2.60;45.70;;;;;;5053888;28;20219;-66
2023/12/03 11:58:22;;;;;;;11.17;10.07;;;2.60;47.20;;;;;;5063231;28;20218;-65
2023/12/03 12:00:49;;;;;;;10.63;9.53;;;2.60;46.00;;;;;;5072475;28;20201;-66
2023/12/03 12:03:15;;;;;;;9.90;8.93;;;2.20;45.20;;;;;;5070826;28;20229;-67
2023/12/03 12:05:42;;;;;;;11.73;10.03;;;2.10;45.70;;;;;;5072766;28;20277;-66
2023/12/03 12:08:08;;;;;;;10.73;9.63;;;1.80;46.30;;;;;;5069421;28;20213;-67
2023/12/03 12:10:35;;;;;;;11.07;9.37;;;1.70;48.10;;;;;;5065637;28;20201;-66
2023/12/03 12:13:01;;;;;;;11.73;10.53;;;1.70;48.40;;;;;;5068483;28;20232;-67
2023/12/03 12:15:28;;;;;;;12.43;11.13;;;1.60;48.10;;;;;;5068329;28;20241;-67
2023/12/03 12:17:55;;;;;;;11.77;9.80;;;1.70;48.70;;;;;;5061276;28;20286;-66
2023/12/03 12:20:22;;;;;;;11.20;9.40;;;1.60;48.00;;;;;;5064600;28;20696;-66
2023/12/03 12:22:48;;;;;;;11.07;9.97;;;1.80;47.60;;;;;;5064919;28;20288;-67
2023/12/03 12:25:15;;;;;;;11.23;9.83;;;1.60;48.00;;;;;;5069673;28;20229;-66
2023/12/03 12:27:41;;;;;;;11.23;10.07;;;1.60;49.40;;;;;;5066965;28;20659;-65
2023/12/03 12:30:08;;;;;;;11.43;10.23;;;1.50;48.50;;;;;;5060866;28;20372;-66
2023/12/03 12:32:35;;;;;;;11.43;10.23;;;1.40;48.80;;;;;;5069179;28;20224;-68
2023/12/03 12:35:02;;;;;;;11.53;9.90;;;1.50;49.50;;;;;;5064341;28;20226;-66
2023/12/03 12:37:28;;;;;;;10.23;9.00;;;1.70;49.00;;;;;;5061693;28;20199;-66
2023/12/03 12:39:55;;;;;;;10.83;9.60;;;1.50;48.30;;;;;;5068654;28;20673;-66
2023/12/03 12:42:21;;;;;;;11.03;9.77;;;1.40;48.10;;;;;;5064538;28;20310;-66